Time;durP1;ratioP1;P1;durP2;ratioP2;P2;SDS_P1;SDS_P2;PMS_P1;PMS_P2;Temp;Humidity;BMP_temperature;BMP_pressure;BME280_temperature;BME280_humidity;BME280_pressure;Samples;Min_cycle;Max_cycle;Signal;HPM_P1;HPM_P2
2022/03/04 00:08:08;;;;;;;10.05;3.78;;;5.30;99.90;;;;;;20583441;28;20090;-46
2022/03/04 00:18:10;;;;;;;10.25;3.65;;;5.10;99.90;;;;;;20580682;28;20051;-46
2022/03/04 00:28:11;;;;;;;10.90;3.22;;;4.90;99.90;;;;;;20567386;28;20034;-45
2022/03/04 00:38:12;;;;;;;10.73;3.70;;;4.90;99.90;;;;;;20564483;28;20439;-46
2022/03/04 00:48:13;;;;;;;9.02;3.47;;;4.80;99.90;;;;;;20563462;28;20054;-45
2022/03/04 00:58:15;;;;;;;10.23;3.53;;;4.70;99.90;;;;;;20567722;28;20066;-46
2022/03/04 01:08:18;;;;;;;9.85;4.75;;;4.70;99.90;;;;;;20567767;28;20069;-45
2022/03/04 01:18:19;;;;;;;9.82;4.00;;;4.50;99.90;;;;;;20567084;28;20510;-45
2022/03/04 01:28:21;;;;;;;8.98;3.10;;;4.30;99.90;;;;;;20576665;28;20526;-46
2022/03/04 01:38:22;;;;;;;7.00;3.10;;;4.10;99.90;;;;;;20534844;28;1175648;-45
2022/03/04 01:48:23;;;;;;;7.05;3.25;;;4.20;99.90;;;;;;20580405;28;20038;-45
2022/03/04 01:58:24;;;;;;;6.40;2.47;;;4.10;99.90;;;;;;20565963;28;20054;-45
2022/03/04 02:08:25;;;;;;;10.73;3.42;;;4.00;99.90;;;;;;20572508;28;20039;-45
2022/03/04 02:18:26;;;;;;;9.45;3.63;;;3.80;99.90;;;;;;20570808;28;20541;-46
2022/03/04 02:28:28;;;;;;;13.00;3.75;;;3.80;99.90;;;;;;20577617;28;20054;-46
2022/03/04 02:38:29;;;;;;;12.88;3.95;;;3.50;99.90;;;;;;20577698;28;20583;-45
2022/03/04 02:48:30;;;;;;;12.45;3.70;;;3.50;99.90;;;;;;20577416;28;20038;-46
2022/03/04 02:58:31;;;;;;;8.93;3.88;;;3.50;99.90;;;;;;20577329;28;20422;-45
2022/03/04 03:08:32;;;;;;;8.70;3.03;;;3.40;99.90;;;;;;20579393;28;20050;-45
2022/03/04 03:18:34;;;;;;;8.50;3.10;;;3.30;99.90;;;;;;20512307;28;22460;-46
2022/03/04 03:28:35;;;;;;;7.30;3.47;;;3.10;99.90;;;;;;20496407;28;20039;-45
2022/03/04 03:38:36;;;;;;;7.85;2.55;;;2.90;99.90;;;;;;20557772;28;20049;-45
2022/03/04 03:48:40;;;;;;;8.68;3.25;;;2.80;99.90;;;;;;20585876;28;20057;-46
2022/03/04 03:58:42;;;;;;;10.10;2.75;;;2.80;99.90;;;;;;20595446;28;20081;-45
2022/03/04 04:08:43;;;;;;;14.77;4.10;;;2.70;99.90;;;;;;20590729;28;20057;-45
2022/03/04 04:18:44;;;;;;;11.30;2.95;;;2.70;99.90;;;;;;20583952;28;20053;-45
2022/03/04 04:28:45;;;;;;;12.38;4.18;;;2.50;99.90;;;;;;20584564;28;20602;-45
2022/03/04 04:38:46;;;;;;;15.98;4.05;;;2.50;99.90;;;;;;20582374;28;20066;-45
2022/03/04 04:48:47;;;;;;;8.45;3.03;;;2.40;99.90;;;;;;20612773;28;20395;-46
2022/03/04 04:58:48;;;;;;;8.75;3.05;;;2.40;99.90;;;;;;20599984;28;20055;-45
2022/03/04 05:08:49;;;;;;;10.52;3.08;;;2.30;99.90;;;;;;20589136;28;20030;-45
2022/03/04 05:18:50;;;;;;;10.30;2.65;;;2.30;99.90;;;;;;20585092;28;20049;-45
2022/03/04 05:28:51;;;;;;;10.55;3.63;;;2.30;99.90;;;;;;20575146;28;20659;-45
2022/03/04 05:38:53;;;;;;;9.68;3.20;;;2.10;99.90;;;;;;20539042;28;20431;-45
2022/03/04 05:48:54;;;;;;;7.55;2.95;;;2.00;99.90;;;;;;20574482;28;20529;-45
2022/03/04 05:58:55;;;;;;;17.67;3.90;;;2.00;99.90;;;;;;20559886;28;20043;-45
2022/03/04 06:08:56;;;;;;;7.68;3.65;;;1.90;99.90;;;;;;20484178;28;20418;-45
2022/03/04 06:18:58;;;;;;;6.93;2.53;;;1.90;99.90;;;;;;20482426;28;20073;-45
2022/03/04 06:28:59;;;;;;;7.25;2.88;;;1.80;99.90;;;;;;20482867;28;20405;-45
2022/03/04 06:39:00;;;;;;;11.05;3.28;;;1.80;99.90;;;;;;20477681;28;20055;-45
2022/03/04 06:49:02;;;;;;;9.00;3.75;;;1.60;99.90;;;;;;20591037;28;20042;-45
2022/03/04 06:59:03;;;;;;;13.07;4.40;;;1.70;99.90;;;;;;20564985;28;20054;-45
2022/03/04 07:09:05;;;;;;;8.55;3.08;;;1.70;99.90;;;;;;20558414;28;20045;-45
2022/03/04 07:19:06;;;;;;;11.75;3.45;;;1.70;99.90;;;;;;20574976;28;20031;-45
2022/03/04 07:29:07;;;;;;;6.63;2.97;;;1.70;99.90;;;;;;20579831;28;20050;-45
2022/03/04 07:39:08;;;;;;;8.98;2.95;;;1.90;99.90;;;;;;20573977;28;20655;-46
2022/03/04 07:49:09;;;;;;;7.82;3.40;;;2.00;99.90;;;;;;20566781;28;20057;-46
2022/03/04 07:59:10;;;;;;;7.88;3.30;;;2.30;99.90;;;;;;20531661;28;20518;-45
2022/03/04 08:09:11;;;;;;;13.82;4.22;;;2.60;99.90;;;;;;20573172;28;20694;-46
2022/03/04 08:19:12;;;;;;;7.55;3.60;;;2.90;99.90;;;;;;20595665;28;20050;-45
2022/03/04 08:29:14;;;;;;;7.43;3.88;;;3.30;99.90;;;;;;20525397;28;20039;-45
2022/03/04 08:39:16;;;;;;;8.48;3.65;;;3.70;99.90;;;;;;20540907;28;20120;-45
2022/03/04 08:49:19;;;;;;;9.63;3.97;;;4.30;99.90;;;;;;20579475;28;20046;-45
2022/03/04 08:59:20;;;;;;;12.85;3.55;;;4.80;99.90;;;;;;20586269;28;20065;-45
2022/03/04 09:09:21;;;;;;;9.57;3.65;;;5.50;99.90;;;;;;20584794;28;20493;-45
2022/03/04 09:19:23;;;;;;;9.13;3.58;;;6.00;99.90;;;;;;20532533;28;20042;-45
2022/03/04 09:29:24;;;;;;;9.75;3.95;;;6.30;99.90;;;;;;20592155;28;20557;-46
2022/03/04 09:39:25;;;;;;;13.13;4.35;;;6.60;99.90;;;;;;20577843;28;20057;-46
2022/03/04 09:49:31;;;;;;;8.52;4.03;;;6.90;99.90;;;;;;20560440;28;20038;-45
2022/03/04 09:59:33;;;;;;;9.10;4.33;;;7.10;99.90;;;;;;20574177;28;20134;-46
2022/03/04 10:09:46;;;;;;;13.02;4.20;;;7.40;99.90;;;;;;20565280;28;20053;-46
2022/03/04 10:19:56;;;;;;;7.70;3.97;;;7.60;99.90;;;;;;20598234;28;20125;-46
2022/03/04 10:29:58;;;;;;;9.00;4.78;;;7.90;99.90;;;;;;20606987;28;20045;-46
2022/03/04 10:40:00;;;;;;;10.52;4.15;;;8.10;99.90;;;;;;20615593;28;20223;-46
2022/03/04 10:50:02;;;;;;;13.63;3.85;;;8.60;99.90;;;;;;20588106;28;20067;-46
2022/03/04 11:00:04;;;;;;;13.15;4.32;;;8.80;99.90;;;;;;20590659;28;20059;-46
2022/03/04 11:10:06;;;;;;;14.18;4.70;;;9.10;99.90;;;;;;20586289;28;20038;-46
2022/03/04 11:20:08;;;;;;;13.55;5.03;;;9.30;99.90;;;;;;20577772;28;20074;-45
2022/03/04 11:30:29;;;;;;;11.35;4.25;;;9.90;99.10;;;;;;20566042;28;20508;-46
2022/03/04 11:40:33;;;;;;;11.93;4.10;;;10.50;98.20;;;;;;20574932;28;20523;-46
2022/03/04 11:50:38;;;;;;;13.10;4.15;;;11.90;95.70;;;;;;20513055;28;20410;-46
2022/03/04 12:00:39;;;;;;;10.25;3.90;;;12.40;96.00;;;;;;20496976;28;20043;-46
2022/03/04 12:10:50;;;;;;;9.63;4.28;;;12.90;94.00;;;;;;20506760;28;20034;-45
2022/03/04 12:21:24;;;;;;;10.02;3.53;;;12.90;92.10;;;;;;20490967;28;20066;-46
2022/03/04 12:31:26;;;;;;;9.23;3.75;;;13.70;91.20;;;;;;20591793;28;20039;-46
2022/03/04 12:41:29;;;;;;;6.95;2.92;;;14.00;88.50;;;;;;20573651;28;20619;-46
2022/03/04 12:51:33;;;;;;;8.27;2.75;;;14.10;80.70;;;;;;20578109;28;20771;-46
2022/03/04 13:01:34;;;;;;;7.70;3.05;;;14.30;82.30;;;;;;20577536;28;20051;-46
2022/03/04 13:11:43;;;;;;;6.30;2.75;;;14.20;73.40;;;;;;20590651;28;20418;-46
2022/03/04 13:21:59;;;;;;;5.93;1.75;;;14.50;75.70;;;;;;20576264;28;20050;-46
2022/03/04 13:32:09;;;;;;;5.28;1.75;;;14.90;70.20;;;;;;20586508;28;20042;-46
2022/03/04 13:42:15;;;;;;;7.47;2.28;;;14.30;65.50;;;;;;20584790;28;20050;-46
2022/03/04 13:52:17;;;;;;;4.70;1.55;;;14.50;67.70;;;;;;20586735;28;20054;-46
2022/03/04 14:02:19;;;;;;;8.50;2.22;;;14.70;66.30;;;;;;20575899;28;20058;-46
2022/03/04 14:12:20;;;;;;;5.07;1.75;;;15.00;64.00;;;;;;20587349;28;20053;-46
2022/03/04 14:22:21;;;;;;;7.78;2.47;;;14.70;65.30;;;;;;20589208;28;20064;-46
2022/03/04 14:32:22;;;;;;;6.38;2.50;;;15.50;68.40;;;;;;20586572;28;20421;-46
2022/03/04 14:42:24;;;;;;;6.47;2.83;;;15.40;70.50;;;;;;20575443;28;20062;-46
2022/03/04 14:52:25;;;;;;;5.63;2.55;;;14.30;67.90;;;;;;20583712;28;20051;-46
2022/03/04 15:02:26;;;;;;;5.57;2.95;;;13.30;70.30;;;;;;20600897;28;20415;-45
2022/03/04 15:12:27;;;;;;;6.97;3.10;;;13.20;74.00;;;;;;20591819;28;20045;-45
2022/03/04 15:22:29;;;;;;;6.22;2.42;;;12.40;72.90;;;;;;20614348;28;20047;-45
2022/03/04 15:32:31;;;;;;;5.78;2.78;;;12.20;73.00;;;;;;20588392;28;20069;-45
2022/03/04 15:42:32;;;;;;;7.25;2.95;;;11.90;73.70;;;;;;20597033;28;20799;-45
2022/03/04 15:52:36;;;;;;;7.88;3.17;;;11.80;73.60;;;;;;20545712;28;20039;-46
2022/03/04 16:02:37;;;;;;;8.65;3.28;;;11.60;76.30;;;;;;20548057;28;20038;-46
2022/03/04 16:12:38;;;;;;;8.88;2.83;;;11.30;77.20;;;;;;20602432;28;20046;-46
2022/03/04 16:22:39;;;;;;;9.95;3.65;;;10.90;77.30;;;;;;20635896;28;20049;-46
2022/03/04 16:32:40;;;;;;;7.40;3.70;;;10.80;79.60;;;;;;20637402;28;20041;-45
2022/03/04 16:42:41;;;;;;;7.10;2.80;;;10.70;80.30;;;;;;20635395;28;20524;-45
2022/03/04 16:52:43;;;;;;;8.00;3.78;;;10.60;79.40;;;;;;20626222;28;20038;-46
2022/03/04 17:02:44;;;;;;;12.18;3.80;;;10.40;82.20;;;;;;20603207;28;20043;-45
2022/03/04 17:12:45;;;;;;;7.72;2.72;;;10.30;82.30;;;;;;20599836;28;20040;-45
2022/03/04 17:22:46;;;;;;;7.88;3.22;;;10.20;84.70;;;;;;20591722;28;20053;-46
2022/03/04 17:32:48;;;;;;;7.80;2.80;;;10.00;90.60;;;;;;20563832;28;20037;-45
2022/03/04 17:42:51;;;;;;;4.95;2.50;;;9.60;90.50;;;;;;20585860;28;20042;-45
2022/03/04 17:52:52;;;;;;;8.55;3.58;;;9.40;89.90;;;;;;20581383;28;20043;-45
2022/03/04 18:02:53;;;;;;;10.95;3.70;;;9.20;90.30;;;;;;20623939;28;20524;-45
2022/03/04 18:12:57;;;;;;;6.82;2.40;;;8.90;90.20;;;;;;20608604;28;20042;-45
2022/03/04 18:22:58;;;;;;;7.40;3.03;;;8.80;90.10;;;;;;20579035;28;20046;-45
2022/03/04 18:32:59;;;;;;;9.32;3.15;;;8.60;91.10;;;;;;20571766;28;20410;-45
2022/03/04 18:43:00;;;;;;;10.50;3.28;;;8.40;91.50;;;;;;20577078;28;20491;-45
2022/03/04 18:53:02;;;;;;;9.07;3.47;;;8.30;92.20;;;;;;20570219;28;20057;-45
2022/03/04 19:03:04;;;;;;;7.93;2.97;;;8.00;92.70;;;;;;20568210;28;20038;-46
2022/03/04 19:13:05;;;;;;;8.05;3.00;;;7.80;92.60;;;;;;20630085;28;20053;-46
2022/03/04 19:23:06;;;;;;;12.25;3.45;;;7.70;92.90;;;;;;20642659;28;20049;-46
2022/03/04 19:33:09;;;;;;;10.05;2.97;;;7.60;93.40;;;;;;20637090;28;20542;-46
2022/03/04 19:43:11;;;;;;;6.35;2.70;;;7.40;95.40;;;;;;20618419;28;20054;-46
2022/03/04 19:53:12;;;;;;;11.45;3.67;;;7.20;95.50;;;;;;20569649;28;20035;-46
2022/03/04 20:03:14;;;;;;;6.75;2.65;;;6.90;95.80;;;;;;20582851;28;20490;-46
2022/03/04 20:13:15;;;;;;;6.18;2.22;;;6.80;96.90;;;;;;20573350;28;20039;-46
2022/03/04 20:23:17;;;;;;;7.47;3.00;;;6.60;97.40;;;;;;20582489;28;20054;-46
2022/03/04 20:33:18;;;;;;;9.48;3.22;;;6.40;98.00;;;;;;20587248;28;21535;-46
2022/03/04 20:43:20;;;;;;;8.80;3.28;;;6.30;98.50;;;;;;20569234;28;20057;-46
2022/03/04 20:53:21;;;;;;;12.50;3.67;;;6.20;99.40;;;;;;20567155;28;20534;-46
2022/03/04 21:03:22;;;;;;;7.72;3.08;;;6.10;99.90;;;;;;20586869;28;20038;-46
2022/03/04 21:13:23;;;;;;;10.55;2.50;;;5.80;99.90;;;;;;20582776;28;20035;-46
2022/03/04 21:23:24;;;;;;;8.40;2.75;;;5.60;99.90;;;;;;20572485;28;20046;-46
2022/03/04 21:33:25;;;;;;;8.93;2.83;;;5.50;99.90;;;;;;20578173;28;20497;-46
2022/03/04 21:43:27;;;;;;;8.48;2.60;;;5.30;99.90;;;;;;20582471;28;20055;-46
2022/03/04 21:53:29;;;;;;;7.03;3.45;;;5.10;99.90;;;;;;20572254;28;20046;-46
2022/03/04 22:03:30;;;;;;;7.20;2.90;;;5.00;99.90;;;;;;20580113;28;20047;-46
2022/03/04 22:13:31;;;;;;;10.13;3.95;;;4.90;99.90;;;;;;20593264;28;20045;-46
2022/03/04 22:23:32;;;;;;;6.85;2.28;;;4.70;99.90;;;;;;20579315;28;20122;-46
2022/03/04 22:33:33;;;;;;;8.30;2.97;;;4.60;99.90;;;;;;20585805;28;20051;-46
2022/03/04 22:43:34;;;;;;;8.82;3.50;;;4.40;99.90;;;;;;20591288;28;20046;-46
2022/03/04 22:53:35;;;;;;;8.60;3.05;;;4.30;99.90;;;;;;20602038;28;20042;-46
2022/03/04 23:13:59;;;;;;;6.50;2.50;;;4.00;99.90;;;;;;20606654;28;20047;-46
2022/03/04 23:24:00;;;;;;;10.25;3.05;;;3.90;99.90;;;;;;20602515;28;20038;-46
2022/03/04 23:34:02;;;;;;;9.50;3.22;;;3.70;99.90;;;;;;20600703;28;20057;-46
2022/03/04 23:44:04;;;;;;;9.02;3.10;;;3.50;99.90;;;;;;20600788;28;20515;-46
2022/03/04 23:54:05;;;;;;;8.50;2.03;;;3.40;99.90;;;;;;20598411;28;20403;-46
